createdAt,value
2017-03-10T16:19:13.771Z,7.83
2017-03-10T16:20:12.782Z,9.60
2017-03-10T16:21:12.210Z,7.92
2017-03-10T16:22:11.215Z,8.63
2017-03-10T16:23:09.790Z,7.68
2017-03-10T16:24:08.753Z,8.05
2017-03-10T16:25:07.864Z,7.87
2017-03-10T16:26:06.822Z,8.40
2017-03-10T16:27:05.386Z,9.40
2017-03-10T16:28:03.927Z,8.30
2017-03-10T16:29:03.162Z,8.40
2017-03-10T16:30:02.202Z,9.50
2017-03-10T16:31:01.152Z,8.57
2017-03-10T16:32:00.099Z,8.33
2017-03-10T16:32:59.090Z,8.00
2017-03-10T16:33:57.670Z,8.37
2017-03-10T16:34:56.702Z,7.75
2017-03-10T16:35:55.797Z,7.83
2017-03-10T16:36:54.762Z,7.33
2017-03-10T16:37:53.366Z,8.33
2017-03-10T16:38:52.398Z,7.25
2017-03-10T16:39:51.507Z,8.90
2017-03-10T16:40:50.725Z,7.57
2017-03-10T16:41:49.687Z,7.63
2017-03-10T16:42:48.662Z,7.87
2017-03-10T16:43:47.254Z,8.78
2017-03-10T16:44:46.225Z,7.48
2017-03-10T16:45:45.342Z,7.22
2017-03-10T16:46:44.316Z,7.00
2017-03-10T16:47:43.437Z,7.98
2017-03-10T16:48:42.430Z,7.38
2017-03-10T16:49:41.445Z,7.70
2017-03-10T16:50:40.527Z,7.73
2017-03-10T16:51:39.483Z,7.85
2017-03-10T16:52:38.474Z,7.40
2017-03-10T16:53:37.074Z,7.72
2017-03-10T16:54:35.672Z,8.15
2017-03-10T16:55:34.635Z,7.25
2017-03-10T16:56:33.593Z,7.82
2017-03-10T16:57:32.628Z,7.60
2017-03-10T16:58:31.619Z,7.28
2017-03-10T16:59:30.643Z,7.92
2017-03-10T17:00:29.627Z,9.10
2017-03-10T17:01:28.672Z,7.42
2017-03-10T17:02:27.724Z,7.75
2017-03-10T17:03:27.066Z,7.75
2017-03-10T17:04:26.023Z,9.60
2017-03-10T17:05:24.979Z,7.45
2017-03-10T17:06:23.952Z,8.17
2017-03-10T17:07:22.942Z,8.57
2017-03-10T17:08:22.081Z,6.72
2017-03-10T17:09:21.094Z,6.68
2017-03-10T17:10:20.266Z,7.53
2017-03-10T17:11:19.247Z,7.17
2017-03-10T17:12:18.271Z,6.62
2017-03-10T17:13:17.417Z,8.32
2017-03-10T17:14:16.398Z,8.30
2017-03-10T17:15:15.370Z,8.03
2017-03-10T17:16:14.395Z,7.95
2017-03-10T17:17:13.391Z,7.78
2017-03-10T17:18:11.981Z,7.73
2017-03-10T17:19:10.947Z,7.55
2017-03-10T17:20:09.580Z,7.05
2017-03-10T17:21:08.551Z,7.40
2017-03-10T17:22:07.551Z,6.90
2017-03-10T17:23:06.507Z,7.03
2017-03-10T17:24:05.593Z,6.80
2017-03-10T17:25:04.579Z,6.42
2017-03-10T17:26:03.649Z,6.50
2017-03-10T17:27:02.621Z,6.78
2017-03-10T17:28:01.148Z,6.60
2017-03-10T17:29:00.158Z,6.93
2017-03-10T17:29:59.109Z,6.62
2017-03-10T17:30:58.077Z,6.87
2017-03-10T17:31:57.130Z,7.02
2017-03-10T17:32:56.113Z,7.70
2017-03-10T17:33:55.155Z,7.37
2017-03-10T17:34:54.164Z,6.52
2017-03-10T17:35:53.606Z,6.60
2017-03-10T17:36:52.574Z,7.48
2017-03-10T17:37:51.594Z,7.32
2017-03-10T17:38:50.633Z,7.07
2017-03-10T17:39:49.634Z,6.75
2017-03-10T17:40:48.997Z,7.32
2017-03-10T17:41:48.008Z,7.55
2017-03-10T17:42:46.985Z,7.10
2017-03-10T17:43:45.973Z,6.65
2017-03-10T17:44:44.966Z,7.38
2017-03-10T17:45:44.095Z,6.85
2017-03-10T17:46:43.287Z,6.70
2017-03-10T17:47:42.281Z,6.60
2017-03-10T17:48:41.255Z,6.43
2017-03-10T17:49:39.781Z,7.00
2017-03-10T17:50:39.834Z,6.05
2017-03-10T17:51:38.424Z,6.65
2017-03-10T17:52:37.388Z,6.43
2017-03-10T17:53:36.022Z,6.95
2017-03-10T17:54:34.970Z,6.45
2017-03-10T17:55:34.012Z,5.87
2017-03-10T17:56:33.003Z,5.87
2017-03-10T17:57:32.039Z,6.55
2017-03-10T17:58:31.066Z,8.35
2017-03-10T17:59:29.789Z,7.88
2017-03-10T18:00:28.690Z,6.47
2017-03-10T18:01:27.743Z,6.07
2017-03-10T18:02:26.734Z,6.48
2017-03-10T18:03:25.719Z,6.25
2017-03-10T18:04:24.743Z,6.87
2017-03-10T18:05:23.751Z,6.82
2017-03-10T18:06:22.811Z,7.45
2017-03-10T18:07:22.026Z,6.35
2017-03-10T18:08:21.017Z,6.95
2017-03-10T18:09:20.044Z,6.70
2017-03-10T18:10:19.051Z,6.15
2017-03-10T18:11:18.066Z,7.25
2017-03-10T18:12:17.115Z,6.52
2017-03-10T18:13:16.180Z,6.80
2017-03-10T18:14:15.273Z,7.63
2017-03-10T18:15:14.243Z,7.15
2017-03-10T18:16:13.218Z,7.57
2017-03-10T18:17:12.202Z,6.15
2017-03-10T18:18:11.232Z,7.47
2017-03-10T18:19:10.226Z,6.78
2017-03-10T18:20:09.279Z,6.20
2017-03-10T18:21:08.234Z,7.05
2017-03-10T18:22:07.287Z,7.37
2017-03-10T18:23:05.875Z,6.30
2017-03-10T18:24:04.623Z,5.95
2017-03-10T18:25:03.572Z,7.57
2017-03-10T18:26:02.141Z,6.55
2017-03-10T18:27:01.135Z,6.52
2017-03-10T18:28:00.087Z,6.37
2017-03-10T18:28:59.026Z,6.37
2017-03-10T18:29:58.054Z,7.05
2017-03-10T18:30:57.078Z,7.13
2017-03-10T18:31:56.070Z,6.80
2017-03-10T18:32:55.090Z,6.40
2017-03-10T18:33:54.140Z,5.75
2017-03-10T18:34:53.103Z,6.35
2017-03-10T18:35:52.106Z,6.92
2017-03-10T18:36:51.090Z,6.55
2017-03-10T18:37:50.682Z,7.28
2017-03-10T18:38:49.739Z,6.87
2017-03-10T18:39:48.878Z,6.55
2017-03-10T18:40:47.902Z,7.48
2017-03-10T18:41:47.635Z,6.92
2017-03-10T18:42:46.672Z,6.30
2017-03-10T18:43:45.607Z,6.70
2017-03-10T18:44:44.589Z,6.60
2017-03-10T18:45:43.582Z,7.67
2017-03-10T18:46:42.650Z,6.17
2017-03-10T18:47:41.778Z,6.83
2017-03-10T18:48:40.899Z,6.47
2017-03-10T18:49:39.471Z,6.12
2017-03-10T18:50:38.455Z,7.00
2017-03-10T18:51:37.461Z,6.65
2017-03-10T18:52:36.447Z,7.37
2017-03-10T18:53:35.483Z,7.47
2017-03-10T18:54:34.513Z,7.77
2017-03-10T18:55:33.221Z,7.12
2017-03-10T18:56:32.308Z,6.93
2017-03-10T18:57:32.966Z,8.27
2017-03-10T18:58:31.715Z,7.48
2017-03-10T18:59:30.649Z,9.45
2017-03-10T19:00:29.718Z,9.32
2017-03-10T19:01:32.108Z,8.77
2017-03-10T19:02:31.396Z,7.25
2017-03-10T19:03:30.095Z,8.08
2017-03-10T19:04:28.657Z,7.32
2017-03-10T19:05:27.690Z,8.08
2017-03-10T19:06:26.679Z,8.28
2017-03-10T19:07:25.327Z,8.87
2017-03-10T19:08:24.283Z,7.73
2017-03-10T19:09:23.344Z,8.70
2017-03-10T19:10:22.346Z,9.13
2017-03-10T19:11:20.899Z,7.75
2017-03-10T19:12:20.058Z,9.03
2017-03-10T19:13:19.193Z,8.07
2017-03-10T19:14:17.775Z,8.70
2017-03-10T19:15:16.528Z,9.92
2017-03-10T19:16:15.548Z,10.00
2017-03-10T19:17:14.573Z,9.10
2017-03-10T19:18:13.711Z,9.13
2017-03-10T19:19:12.813Z,10.98
2017-03-10T19:20:11.880Z,12.60
2017-03-10T19:21:10.993Z,15.82
2017-03-10T19:22:10.497Z,16.17
2017-03-10T19:23:09.542Z,17.38
2017-03-10T19:24:08.851Z,20.60
2017-03-10T19:25:08.225Z,15.63
2017-03-10T19:26:07.479Z,15.30
2017-03-10T19:27:06.658Z,15.33
2017-03-10T19:28:06.301Z,14.90
2017-03-10T19:29:05.376Z,13.75
2017-03-10T19:30:05.136Z,14.00
2017-03-10T19:31:04.207Z,14.48
2017-03-10T19:32:03.975Z,12.68
2017-03-10T19:33:03.229Z,12.88
2017-03-10T19:34:04.110Z,12.92
2017-03-10T19:35:04.193Z,13.23
2017-03-10T19:36:03.770Z,12.48
2017-03-10T19:37:03.352Z,10.90
2017-03-10T19:38:03.042Z,10.90
2017-03-10T19:39:03.352Z,10.35
2017-03-10T19:40:03.428Z,9.78
2017-03-10T19:41:03.664Z,9.00
2017-03-10T19:42:04.249Z,9.57
2017-03-10T19:43:05.019Z,9.37
2017-03-10T19:44:05.714Z,8.45
2017-03-10T19:45:06.945Z,8.93
2017-03-10T19:46:08.056Z,9.60
2017-03-10T19:47:09.165Z,9.13
2017-03-10T19:48:10.487Z,8.67
2017-03-10T19:49:11.557Z,9.42
2017-03-10T19:50:12.680Z,8.15
2017-03-10T19:51:16.441Z,8.08
2017-03-10T19:52:17.847Z,9.63
2017-03-10T19:53:18.759Z,8.95
2017-03-10T19:54:19.906Z,8.33
2017-03-10T19:55:20.937Z,8.78
2017-03-10T19:56:23.097Z,9.42
2017-03-10T19:57:24.354Z,10.62
2017-03-10T19:58:25.240Z,9.98
2017-03-10T19:59:26.412Z,10.23
2017-03-10T20:00:27.553Z,9.47
2017-03-10T20:01:28.658Z,10.82
2017-03-10T20:02:29.591Z,10.75
2017-03-10T20:03:30.580Z,10.15
2017-03-10T20:04:31.867Z,9.93
2017-03-10T20:05:33.273Z,11.72
2017-03-10T20:06:34.717Z,12.02
2017-03-10T20:07:36.344Z,12.17
2017-03-10T20:08:37.596Z,11.60
2017-03-10T20:09:38.939Z,12.08
2017-03-10T20:10:39.914Z,10.70
2017-03-10T20:11:42.056Z,10.57
2017-03-10T20:12:42.959Z,12.13
2017-03-10T20:13:44.274Z,10.17
2017-03-10T20:14:45.619Z,11.83
2017-03-10T20:15:46.978Z,11.87
2017-03-10T20:16:48.665Z,12.62
2017-03-10T20:17:50.005Z,10.80
2017-03-10T20:18:51.341Z,10.95
2017-03-10T20:19:52.596Z,11.15
2017-03-10T20:20:53.538Z,12.13
2017-03-10T20:21:55.125Z,10.23
2017-03-10T20:22:56.792Z,11.03
2017-03-10T20:23:57.703Z,12.77
2017-03-10T20:24:59.877Z,12.18
2017-03-10T20:26:01.246Z,11.77
2017-03-10T20:27:02.971Z,12.25
2017-03-10T20:28:04.444Z,11.58
2017-03-10T20:29:05.742Z,11.67
2017-03-10T20:30:07.449Z,12.10
2017-03-10T20:31:08.934Z,11.02
2017-03-10T20:32:10.303Z,12.50
2017-03-10T20:33:11.597Z,11.08
2017-03-10T20:34:12.936Z,13.42
2017-03-10T20:35:14.348Z,13.72
2017-03-10T20:36:15.314Z,13.53
2017-03-10T20:37:16.636Z,13.95
2017-03-10T20:38:17.516Z,13.30
2017-03-10T20:39:18.871Z,12.50
2017-03-10T20:40:20.204Z,13.93
2017-03-10T20:41:22.322Z,12.92
2017-03-10T20:42:23.323Z,12.95
2017-03-10T20:43:24.611Z,11.85
2017-03-10T20:44:25.853Z,13.97
2017-03-10T20:45:27.281Z,14.10
2017-03-10T20:46:28.189Z,12.90
2017-03-10T20:47:29.572Z,12.35
2017-03-10T20:48:31.012Z,12.83
2017-03-10T20:49:32.644Z,14.48
2017-03-10T20:50:34.038Z,13.60
2017-03-10T20:51:36.065Z,15.43
2017-03-10T20:52:37.452Z,12.20
2017-03-10T20:53:39.067Z,12.90
2017-03-10T20:54:41.385Z,13.60
2017-03-10T20:55:42.728Z,12.77
2017-03-10T20:56:44.251Z,13.20
2017-03-10T20:57:45.632Z,14.77
2017-03-10T20:58:46.916Z,16.00
2017-03-10T20:59:48.310Z,13.45
2017-03-10T21:00:49.674Z,15.05
2017-03-10T21:01:51.177Z,15.47
2017-03-10T21:02:52.510Z,17.57
2017-03-10T21:03:55.640Z,16.67
2017-03-10T21:04:57.282Z,15.45
2017-03-10T21:05:59.334Z,15.80
2017-03-10T21:07:00.614Z,14.73
2017-03-10T21:08:02.137Z,17.05
2017-03-10T21:09:03.429Z,21.30
2017-03-10T21:10:04.769Z,18.58
2017-03-10T21:11:06.132Z,16.62
2017-03-10T21:12:08.060Z,15.92
2017-03-10T21:13:09.383Z,15.02
2017-03-10T21:14:10.793Z,15.18
2017-03-10T21:15:12.124Z,17.17
2017-03-10T21:16:13.373Z,16.45
2017-03-10T21:17:14.890Z,16.48
2017-03-10T21:18:15.867Z,16.18
2017-03-10T21:19:17.205Z,16.48
2017-03-10T21:20:18.609Z,14.28
2017-03-10T21:21:19.966Z,14.03
2017-03-10T21:22:22.073Z,15.00
2017-03-10T21:23:23.477Z,15.80
2017-03-10T21:24:24.865Z,16.70
2017-03-10T21:25:26.260Z,14.27
2017-03-10T21:26:27.880Z,15.65
2017-03-10T21:27:29.263Z,13.55
2017-03-10T21:28:30.485Z,15.70
2017-03-10T21:29:31.891Z,14.97
2017-03-10T21:30:32.841Z,16.15
2017-03-10T21:31:35.163Z,14.55
2017-03-10T21:32:36.377Z,14.37
2017-03-10T21:33:37.620Z,14.37
2017-03-10T21:34:38.521Z,15.45
2017-03-10T21:35:40.031Z,16.07
2017-03-10T21:36:41.487Z,15.35
2017-03-10T21:37:43.227Z,15.52
2017-03-10T21:38:44.872Z,15.60
2017-03-10T21:39:46.093Z,15.35
2017-03-10T21:40:47.246Z,16.05
2017-03-10T21:41:48.506Z,14.48
2017-03-10T21:42:49.659Z,15.40
2017-03-10T21:43:50.930Z,15.25
2017-03-10T21:44:52.244Z,15.30
2017-03-10T21:45:53.554Z,17.32
2017-03-10T21:46:54.950Z,18.62
2017-03-10T21:47:56.562Z,16.13
2017-03-10T21:48:57.550Z,14.87
2017-03-10T21:49:57.336Z,16.65
2017-03-10T21:50:57.639Z,15.35
2017-03-10T21:51:58.071Z,14.80
2017-03-10T21:52:58.497Z,15.27
2017-03-10T21:53:59.398Z,14.53
2017-03-10T21:54:59.709Z,16.32
2017-03-10T21:55:59.477Z,14.70
2017-03-10T21:56:59.186Z,15.43
2017-03-10T21:57:58.686Z,15.02
2017-03-10T21:58:58.116Z,15.80
2017-03-10T21:59:57.865Z,17.28
2017-03-10T22:00:57.304Z,16.78
2017-03-10T22:01:57.009Z,16.63
2017-03-10T22:02:56.613Z,16.57
2017-03-10T22:03:56.422Z,17.70
2017-03-10T22:04:56.121Z,17.20
2017-03-10T22:05:55.341Z,17.37
2017-03-10T22:06:54.486Z,19.40
2017-03-10T22:07:53.552Z,17.87
2017-03-10T22:08:52.805Z,18.80
2017-03-10T22:09:52.010Z,18.60
2017-03-10T22:10:51.190Z,17.98
2017-03-10T22:11:50.409Z,17.95
2017-03-10T22:12:49.619Z,17.97
2017-03-10T22:13:48.624Z,18.45
2017-03-10T22:14:47.787Z,17.00
2017-03-10T22:15:47.047Z,17.92
2017-03-10T22:16:46.111Z,18.48
2017-03-10T22:17:45.090Z,20.75
2017-03-10T22:18:44.499Z,18.58
2017-03-10T22:19:43.550Z,18.78
2017-03-10T22:20:42.523Z,17.28
2017-03-10T22:21:41.112Z,17.80
2017-03-10T22:22:40.114Z,17.22
2017-03-10T22:23:39.137Z,16.85
2017-03-10T22:24:38.170Z,16.80
2017-03-10T22:25:37.326Z,17.63
2017-03-10T22:26:36.397Z,22.85
2017-03-10T22:27:35.455Z,26.63
2017-03-10T22:28:34.437Z,26.05
2017-03-10T22:29:33.523Z,23.57
2017-03-10T22:30:32.547Z,22.77
2017-03-10T22:31:31.489Z,22.38
2017-03-10T22:32:30.175Z,19.12
2017-03-10T22:33:29.163Z,18.87
2017-03-10T22:34:28.169Z,18.37
2017-03-10T22:35:27.138Z,18.82
2017-03-10T22:36:26.176Z,17.82
2017-03-10T22:37:25.161Z,18.38
2017-03-10T22:38:23.864Z,16.05
2017-03-10T22:39:22.946Z,15.98
2017-03-10T22:40:21.979Z,15.45
2017-03-10T22:41:20.971Z,18.70
2017-03-10T22:42:20.154Z,17.47
2017-03-10T22:43:19.155Z,16.77
2017-03-10T22:44:18.142Z,16.60
2017-03-10T22:45:17.115Z,15.03
2017-03-10T22:46:16.543Z,15.33
2017-03-10T22:47:15.625Z,15.45
2017-03-10T22:48:14.647Z,15.42
2017-03-10T22:49:13.791Z,14.25
2017-03-10T22:50:12.987Z,14.42
2017-03-10T22:51:12.011Z,15.22
2017-03-10T22:52:11.074Z,14.85
2017-03-10T22:53:10.067Z,13.78
2017-03-10T22:54:09.135Z,14.93
2017-03-10T22:55:07.770Z,14.45
2017-03-10T22:56:06.754Z,13.87
2017-03-10T22:57:05.744Z,13.90
2017-03-10T22:58:04.755Z,13.68
2017-03-10T22:59:03.358Z,14.40
2017-03-10T23:00:02.391Z,13.37
2017-03-10T23:01:01.389Z,14.73
2017-03-10T23:02:00.451Z,14.48
2017-03-10T23:02:59.460Z,13.97
2017-03-10T23:03:58.531Z,15.60
2017-03-10T23:04:57.635Z,13.33
2017-03-10T23:05:57.066Z,14.13
2017-03-10T23:06:56.043Z,13.33
2017-03-10T23:07:54.654Z,15.03
2017-03-10T23:08:56.233Z,13.68
2017-03-10T23:09:55.610Z,13.43
2017-03-10T23:10:54.603Z,12.20
2017-03-10T23:11:56.231Z,12.87
2017-03-10T23:12:55.610Z,13.20
2017-03-10T23:13:54.630Z,12.03
2017-03-10T23:14:53.210Z,12.82
2017-03-10T23:15:51.839Z,13.55
2017-03-10T23:16:50.886Z,12.95
2017-03-10T23:17:49.894Z,13.97
2017-03-10T23:18:48.559Z,12.82
2017-03-10T23:19:47.579Z,12.70
2017-03-10T23:20:46.296Z,12.45
2017-03-10T23:21:45.313Z,13.12
2017-03-10T23:22:44.306Z,12.12
2017-03-10T23:23:43.324Z,12.53
2017-03-10T23:24:42.319Z,12.45
2017-03-10T23:25:41.399Z,12.87
2017-03-10T23:26:40.432Z,12.68
2017-03-10T23:27:39.460Z,12.65
2017-03-10T23:28:38.520Z,13.22
2017-03-10T23:29:38.057Z,14.30
2017-03-10T23:30:37.341Z,14.33
2017-03-10T23:31:40.315Z,14.10
2017-03-10T23:32:39.318Z,14.00
2017-03-10T23:33:38.283Z,12.85
2017-03-10T23:34:37.272Z,13.45
2017-03-10T23:35:36.278Z,13.82
2017-03-10T23:36:34.886Z,13.50
2017-03-10T23:37:34.116Z,12.73
2017-03-10T23:38:33.112Z,13.43
2017-03-10T23:39:32.505Z,14.03
2017-03-10T23:40:31.527Z,14.05
2017-03-10T23:41:30.792Z,19.22
2017-03-10T23:42:29.800Z,18.47
2017-03-10T23:43:30.069Z,15.75
2017-03-10T23:44:29.151Z,20.12
2017-03-10T23:45:28.595Z,21.13
2017-03-10T23:46:27.604Z,20.10
2017-03-10T23:47:28.235Z,18.60
2017-03-10T23:48:27.084Z,18.17
2017-03-10T23:49:26.149Z,17.53
2017-03-10T23:50:25.246Z,17.45
2017-03-10T23:51:24.604Z,14.82
2017-03-10T23:52:23.758Z,15.33
2017-03-10T23:53:22.780Z,15.72
2017-03-10T23:54:21.778Z,14.22
2017-03-10T23:55:21.057Z,13.32
2017-03-10T23:56:20.745Z,13.52
2017-03-10T23:57:20.238Z,13.18
2017-03-10T23:58:19.702Z,12.65
2017-03-10T23:59:18.716Z,13.48
